sensor_id;sensor_type;location;lat;lon;timestamp;P1;durP1;ratioP1;P2;durP2;ratioP2
10260;SDS011;5175;42.606;23.388;2023-04-15T00:01:40;3.93;;;2.70;;
10260;SDS011;5175;42.606;23.388;2023-04-15T00:04:07;7.67;;;5.40;;
10260;SDS011;5175;42.606;23.388;2023-04-15T00:06:36;5.40;;;3.40;;
10260;SDS011;5175;42.606;23.388;2023-04-15T00:09:03;3.90;;;2.87;;
10260;SDS011;5175;42.606;23.388;2023-04-15T00:11:30;4.20;;;2.70;;
10260;SDS011;5175;42.606;23.388;2023-04-15T00:13:57;3.90;;;2.80;;
10260;SDS011;5175;42.606;23.388;2023-04-15T00:16:24;4.83;;;2.80;;
10260;SDS011;5175;42.606;23.388;2023-04-15T00:18:52;5.93;;;3.53;;
10260;SDS011;5175;42.606;23.388;2023-04-15T00:21:19;3.27;;;2.97;;
10260;SDS011;5175;42.606;23.388;2023-04-15T00:23:47;3.17;;;2.50;;
10260;SDS011;5175;42.606;23.388;2023-04-15T00:26:17;4.83;;;2.67;;
10260;SDS011;5175;42.606;23.388;2023-04-15T00:28:44;5.60;;;3.17;;
10260;SDS011;5175;42.606;23.388;2023-04-15T00:31:11;3.73;;;2.90;;
10260;SDS011;5175;42.606;23.388;2023-04-15T00:33:39;3.37;;;2.80;;
10260;SDS011;5175;42.606;23.388;2023-04-15T00:36:06;5.37;;;2.90;;
10260;SDS011;5175;42.606;23.388;2023-04-15T00:38:34;5.60;;;3.10;;
10260;SDS011;5175;42.606;23.388;2023-04-15T00:41:03;5.83;;;4.30;;
10260;SDS011;5175;42.606;23.388;2023-04-15T00:43:30;6.83;;;4.20;;
10260;SDS011;5175;42.606;23.388;2023-04-15T00:45:57;5.50;;;3.50;;
10260;SDS011;5175;42.606;23.388;2023-04-15T00:48:26;8.43;;;4.57;;
10260;SDS011;5175;42.606;23.388;2023-04-15T00:50:53;6.07;;;3.67;;
10260;SDS011;5175;42.606;23.388;2023-04-15T00:53:20;5.07;;;3.60;;
10260;SDS011;5175;42.606;23.388;2023-04-15T00:55:47;6.27;;;3.47;;
10260;SDS011;5175;42.606;23.388;2023-04-15T00:58:16;4.63;;;3.10;;
10260;SDS011;5175;42.606;23.388;2023-04-15T01:00:43;4.90;;;3.20;;
10260;SDS011;5175;42.606;23.388;2023-04-15T01:03:11;7.40;;;3.70;;
10260;SDS011;5175;42.606;23.388;2023-04-15T01:05:39;6.77;;;5.67;;
10260;SDS011;5175;42.606;23.388;2023-04-15T01:08:06;6.70;;;5.13;;
10260;SDS011;5175;42.606;23.388;2023-04-15T01:10:33;7.27;;;3.47;;
10260;SDS011;5175;42.606;23.388;2023-04-15T01:13:01;6.77;;;4.60;;
10260;SDS011;5175;42.606;23.388;2023-04-15T01:15:29;6.67;;;4.30;;
10260;SDS011;5175;42.606;23.388;2023-04-15T01:17:56;6.00;;;4.40;;
10260;SDS011;5175;42.606;23.388;2023-04-15T01:20:25;5.33;;;3.23;;
10260;SDS011;5175;42.606;23.388;2023-04-15T01:22:52;5.60;;;3.60;;
10260;SDS011;5175;42.606;23.388;2023-04-15T01:25:26;4.70;;;3.57;;
10260;SDS011;5175;42.606;23.388;2023-04-15T01:27:57;5.57;;;3.57;;
10260;SDS011;5175;42.606;23.388;2023-04-15T01:30:24;4.83;;;3.40;;
10260;SDS011;5175;42.606;23.388;2023-04-15T01:32:51;4.17;;;3.57;;
10260;SDS011;5175;42.606;23.388;2023-04-15T01:35:18;3.73;;;3.33;;
10260;SDS011;5175;42.606;23.388;2023-04-15T01:37:45;5.10;;;3.63;;
10260;SDS011;5175;42.606;23.388;2023-04-15T01:40:12;4.13;;;3.43;;
10260;SDS011;5175;42.606;23.388;2023-04-15T01:42:40;5.20;;;3.80;;
10260;SDS011;5175;42.606;23.388;2023-04-15T01:45:08;5.60;;;3.07;;
10260;SDS011;5175;42.606;23.388;2023-04-15T01:47:35;5.47;;;3.93;;
10260;SDS011;5175;42.606;23.388;2023-04-15T01:50:03;5.77;;;4.10;;
10260;SDS011;5175;42.606;23.388;2023-04-15T01:52:31;4.83;;;3.77;;
10260;SDS011;5175;42.606;23.388;2023-04-15T01:54:58;4.63;;;3.87;;
10260;SDS011;5175;42.606;23.388;2023-04-15T01:57:25;4.80;;;3.30;;
10260;SDS011;5175;42.606;23.388;2023-04-15T01:59:53;4.83;;;3.93;;
10260;SDS011;5175;42.606;23.388;2023-04-15T02:02:20;5.13;;;3.57;;
10260;SDS011;5175;42.606;23.388;2023-04-15T02:04:47;4.47;;;3.63;;
10260;SDS011;5175;42.606;23.388;2023-04-15T02:07:14;3.63;;;2.97;;
10260;SDS011;5175;42.606;23.388;2023-04-15T02:09:41;5.27;;;3.47;;
10260;SDS011;5175;42.606;23.388;2023-04-15T02:12:10;3.33;;;3.03;;
10260;SDS011;5175;42.606;23.388;2023-04-15T02:14:37;5.70;;;3.10;;
10260;SDS011;5175;42.606;23.388;2023-04-15T02:17:05;4.90;;;3.80;;
10260;SDS011;5175;42.606;23.388;2023-04-15T02:19:32;4.57;;;3.10;;
10260;SDS011;5175;42.606;23.388;2023-04-15T02:21:59;3.90;;;3.10;;
10260;SDS011;5175;42.606;23.388;2023-04-15T02:24:26;4.23;;;3.47;;
10260;SDS011;5175;42.606;23.388;2023-04-15T02:26:54;3.70;;;3.20;;
10260;SDS011;5175;42.606;23.388;2023-04-15T02:29:21;4.87;;;3.13;;
10260;SDS011;5175;42.606;23.388;2023-04-15T02:31:48;4.63;;;3.50;;
10260;SDS011;5175;42.606;23.388;2023-04-15T02:34:17;4.60;;;3.53;;
10260;SDS011;5175;42.606;23.388;2023-04-15T02:36:43;6.17;;;3.53;;
10260;SDS011;5175;42.606;23.388;2023-04-15T02:39:11;11.30;;;9.53;;
10260;SDS011;5175;42.606;23.388;2023-04-15T02:41:40;5.57;;;4.50;;
10260;SDS011;5175;42.606;23.388;2023-04-15T02:44:07;5.37;;;4.07;;
10260;SDS011;5175;42.606;23.388;2023-04-15T02:46:37;7.27;;;4.10;;
10260;SDS011;5175;42.606;23.388;2023-04-15T02:49:05;4.93;;;3.47;;
10260;SDS011;5175;42.606;23.388;2023-04-15T02:51:34;5.67;;;3.67;;
10260;SDS011;5175;42.606;23.388;2023-04-15T02:54:01;4.57;;;3.40;;
10260;SDS011;5175;42.606;23.388;2023-04-15T02:56:27;5.73;;;3.43;;
10260;SDS011;5175;42.606;23.388;2023-04-15T02:58:55;4.87;;;3.57;;
10260;SDS011;5175;42.606;23.388;2023-04-15T03:01:35;4.77;;;3.40;;
10260;SDS011;5175;42.606;23.388;2023-04-15T03:04:02;4.27;;;3.50;;
10260;SDS011;5175;42.606;23.388;2023-04-15T03:06:29;5.60;;;3.20;;
10260;SDS011;5175;42.606;23.388;2023-04-15T03:08:58;5.77;;;3.60;;
10260;SDS011;5175;42.606;23.388;2023-04-15T03:11:26;5.43;;;3.30;;
10260;SDS011;5175;42.606;23.388;2023-04-15T03:13:53;4.47;;;3.57;;
10260;SDS011;5175;42.606;23.388;2023-04-15T03:16:20;4.23;;;3.23;;
10260;SDS011;5175;42.606;23.388;2023-04-15T03:18:47;5.73;;;5.13;;
10260;SDS011;5175;42.606;23.388;2023-04-15T03:21:13;5.57;;;4.10;;
10260;SDS011;5175;42.606;23.388;2023-04-15T03:23:40;5.73;;;3.90;;
10260;SDS011;5175;42.606;23.388;2023-04-15T03:26:08;4.33;;;3.53;;
10260;SDS011;5175;42.606;23.388;2023-04-15T03:28:35;4.83;;;3.47;;
10260;SDS011;5175;42.606;23.388;2023-04-15T03:31:02;4.47;;;3.47;;
10260;SDS011;5175;42.606;23.388;2023-04-15T03:33:29;5.13;;;3.33;;
10260;SDS011;5175;42.606;23.388;2023-04-15T03:35:55;5.83;;;3.50;;
10260;SDS011;5175;42.606;23.388;2023-04-15T03:38:22;5.53;;;3.77;;
10260;SDS011;5175;42.606;23.388;2023-04-15T03:40:49;4.57;;;4.07;;
10260;SDS011;5175;42.606;23.388;2023-04-15T03:43:17;5.27;;;3.80;;
10260;SDS011;5175;42.606;23.388;2023-04-15T03:45:44;4.83;;;3.60;;
10260;SDS011;5175;42.606;23.388;2023-04-15T03:48:11;4.00;;;3.60;;
10260;SDS011;5175;42.606;23.388;2023-04-15T03:50:38;6.37;;;4.57;;
10260;SDS011;5175;42.606;23.388;2023-04-15T03:53:04;6.13;;;3.57;;
10260;SDS011;5175;42.606;23.388;2023-04-15T03:55:31;7.10;;;4.63;;
10260;SDS011;5175;42.606;23.388;2023-04-15T03:57:58;5.60;;;4.50;;
10260;SDS011;5175;42.606;23.388;2023-04-15T04:00:26;6.10;;;5.17;;
10260;SDS011;5175;42.606;23.388;2023-04-15T04:02:53;4.80;;;3.90;;
10260;SDS011;5175;42.606;23.388;2023-04-15T04:05:20;6.87;;;4.67;;
10260;SDS011;5175;42.606;23.388;2023-04-15T04:07:47;5.27;;;4.10;;
10260;SDS011;5175;42.606;23.388;2023-04-15T04:10:14;5.77;;;4.83;;
10260;SDS011;5175;42.606;23.388;2023-04-15T04:12:41;6.33;;;4.80;;
10260;SDS011;5175;42.606;23.388;2023-04-15T04:15:08;7.93;;;5.60;;
10260;SDS011;5175;42.606;23.388;2023-04-15T04:17:37;8.73;;;5.90;;
10260;SDS011;5175;42.606;23.388;2023-04-15T04:20:04;8.80;;;6.77;;
10260;SDS011;5175;42.606;23.388;2023-04-15T04:22:35;7.67;;;5.07;;
10260;SDS011;5175;42.606;23.388;2023-04-15T04:25:03;6.77;;;5.37;;
10260;SDS011;5175;42.606;23.388;2023-04-15T04:27:31;7.93;;;5.67;;
10260;SDS011;5175;42.606;23.388;2023-04-15T04:29:58;8.33;;;4.93;;
10260;SDS011;5175;42.606;23.388;2023-04-15T04:32:24;6.17;;;4.30;;
10260;SDS011;5175;42.606;23.388;2023-04-15T04:34:52;5.20;;;4.70;;
10260;SDS011;5175;42.606;23.388;2023-04-15T04:37:20;5.30;;;4.30;;
10260;SDS011;5175;42.606;23.388;2023-04-15T04:39:47;14.40;;;4.83;;
10260;SDS011;5175;42.606;23.388;2023-04-15T04:42:14;8.50;;;4.70;;
10260;SDS011;5175;42.606;23.388;2023-04-15T04:44:41;7.23;;;4.63;;
10260;SDS011;5175;42.606;23.388;2023-04-15T04:47:09;6.17;;;5.00;;
10260;SDS011;5175;42.606;23.388;2023-04-15T04:49:36;7.87;;;6.13;;
10260;SDS011;5175;42.606;23.388;2023-04-15T04:52:04;7.53;;;5.33;;
10260;SDS011;5175;42.606;23.388;2023-04-15T04:54:31;7.00;;;5.33;;
10260;SDS011;5175;42.606;23.388;2023-04-15T04:56:57;6.97;;;5.10;;
10260;SDS011;5175;42.606;23.388;2023-04-15T04:59:24;9.67;;;5.93;;
10260;SDS011;5175;42.606;23.388;2023-04-15T05:01:51;9.93;;;6.80;;
10260;SDS011;5175;42.606;23.388;2023-04-15T05:04:18;11.33;;;7.10;;
10260;SDS011;5175;42.606;23.388;2023-04-15T05:06:45;9.57;;;6.33;;
10260;SDS011;5175;42.606;23.388;2023-04-15T05:09:13;8.50;;;6.20;;
10260;SDS011;5175;42.606;23.388;2023-04-15T05:11:40;8.17;;;5.13;;
10260;SDS011;5175;42.606;23.388;2023-04-15T05:14:07;7.67;;;5.67;;
10260;SDS011;5175;42.606;23.388;2023-04-15T05:16:33;11.83;;;6.20;;
10260;SDS011;5175;42.606;23.388;2023-04-15T05:19:00;8.57;;;6.77;;
10260;SDS011;5175;42.606;23.388;2023-04-15T05:24:09;8.17;;;6.37;;
10260;SDS011;5175;42.606;23.388;2023-04-15T05:26:37;7.70;;;6.17;;
10260;SDS011;5175;42.606;23.388;2023-04-15T05:29:18;9.27;;;6.17;;
10260;SDS011;5175;42.606;23.388;2023-04-15T05:31:45;6.97;;;5.70;;
10260;SDS011;5175;42.606;23.388;2023-04-15T05:34:12;7.73;;;5.73;;
10260;SDS011;5175;42.606;23.388;2023-04-15T05:42:04;4.97;;;4.20;;
10260;SDS011;5175;42.606;23.388;2023-04-15T05:44:32;5.77;;;3.73;;
10260;SDS011;5175;42.606;23.388;2023-04-15T05:46:58;6.60;;;4.80;;
10260;SDS011;5175;42.606;23.388;2023-04-15T05:49:27;6.00;;;4.27;;
10260;SDS011;5175;42.606;23.388;2023-04-15T05:51:54;6.33;;;5.47;;
10260;SDS011;5175;42.606;23.388;2023-04-15T05:54:21;8.70;;;5.70;;
10260;SDS011;5175;42.606;23.388;2023-04-15T05:56:48;9.53;;;6.53;;
10260;SDS011;5175;42.606;23.388;2023-04-15T05:59:16;7.37;;;6.20;;
10260;SDS011;5175;42.606;23.388;2023-04-15T06:01:43;7.63;;;5.93;;
10260;SDS011;5175;42.606;23.388;2023-04-15T06:04:10;7.47;;;4.90;;
10260;SDS011;5175;42.606;23.388;2023-04-15T06:06:37;5.13;;;3.77;;
10260;SDS011;5175;42.606;23.388;2023-04-15T06:09:04;7.40;;;4.47;;
10260;SDS011;5175;42.606;23.388;2023-04-15T06:14:13;5.70;;;3.60;;
10260;SDS011;5175;42.606;23.388;2023-04-15T06:16:41;7.20;;;4.00;;
10260;SDS011;5175;42.606;23.388;2023-04-15T06:19:08;5.57;;;3.03;;
10260;SDS011;5175;42.606;23.388;2023-04-15T06:24:16;4.27;;;2.63;;
10260;SDS011;5175;42.606;23.388;2023-04-15T06:26:43;6.30;;;2.60;;
10260;SDS011;5175;42.606;23.388;2023-04-15T06:29:10;6.03;;;2.90;;
10260;SDS011;5175;42.606;23.388;2023-04-15T06:31:36;4.97;;;2.93;;
10260;SDS011;5175;42.606;23.388;2023-04-15T06:36:47;5.40;;;2.80;;
10260;SDS011;5175;42.606;23.388;2023-04-15T06:39:13;4.10;;;2.70;;
10260;SDS011;5175;42.606;23.388;2023-04-15T06:41:40;5.03;;;3.10;;
10260;SDS011;5175;42.606;23.388;2023-04-15T06:44:07;6.33;;;3.30;;
10260;SDS011;5175;42.606;23.388;2023-04-15T06:46:34;4.03;;;2.80;;
10260;SDS011;5175;42.606;23.388;2023-04-15T06:49:01;4.77;;;3.13;;
10260;SDS011;5175;42.606;23.388;2023-04-15T06:51:29;5.07;;;3.27;;
10260;SDS011;5175;42.606;23.388;2023-04-15T06:53:56;4.27;;;3.70;;
10260;SDS011;5175;42.606;23.388;2023-04-15T06:56:23;6.23;;;3.53;;
10260;SDS011;5175;42.606;23.388;2023-04-15T06:58:51;5.83;;;3.50;;
10260;SDS011;5175;42.606;23.388;2023-04-15T07:01:17;7.37;;;3.30;;
10260;SDS011;5175;42.606;23.388;2023-04-15T07:03:45;6.13;;;3.30;;
10260;SDS011;5175;42.606;23.388;2023-04-15T07:06:12;5.97;;;3.37;;
10260;SDS011;5175;42.606;23.388;2023-04-15T07:08:40;4.97;;;3.20;;
10260;SDS011;5175;42.606;23.388;2023-04-15T07:11:07;6.93;;;3.70;;
10260;SDS011;5175;42.606;23.388;2023-04-15T07:13:34;6.70;;;3.20;;
10260;SDS011;5175;42.606;23.388;2023-04-15T07:16:01;4.67;;;3.00;;
10260;SDS011;5175;42.606;23.388;2023-04-15T07:18:28;5.53;;;2.90;;
10260;SDS011;5175;42.606;23.388;2023-04-15T07:20:54;4.83;;;3.20;;
10260;SDS011;5175;42.606;23.388;2023-04-15T07:23:21;4.83;;;3.13;;
10260;SDS011;5175;42.606;23.388;2023-04-15T07:25:49;4.23;;;3.50;;
10260;SDS011;5175;42.606;23.388;2023-04-15T07:28:18;5.60;;;3.60;;
10260;SDS011;5175;42.606;23.388;2023-04-15T07:30:45;5.53;;;3.50;;
10260;SDS011;5175;42.606;23.388;2023-04-15T07:33:27;6.47;;;3.77;;
10260;SDS011;5175;42.606;23.388;2023-04-15T07:35:53;6.10;;;3.37;;
10260;SDS011;5175;42.606;23.388;2023-04-15T07:38:20;7.67;;;3.97;;
10260;SDS011;5175;42.606;23.388;2023-04-15T07:40:47;6.43;;;3.93;;
10260;SDS011;5175;42.606;23.388;2023-04-15T07:43:15;3.83;;;3.40;;
10260;SDS011;5175;42.606;23.388;2023-04-15T07:45:42;4.83;;;3.70;;
10260;SDS011;5175;42.606;23.388;2023-04-15T07:48:09;5.77;;;3.97;;
10260;SDS011;5175;42.606;23.388;2023-04-15T07:50:36;6.63;;;4.23;;
10260;SDS011;5175;42.606;23.388;2023-04-15T07:53:03;5.37;;;3.93;;
10260;SDS011;5175;42.606;23.388;2023-04-15T07:55:30;6.27;;;3.87;;
10260;SDS011;5175;42.606;23.388;2023-04-15T07:57:57;6.70;;;4.00;;
10260;SDS011;5175;42.606;23.388;2023-04-15T08:00:25;5.00;;;3.37;;
10260;SDS011;5175;42.606;23.388;2023-04-15T08:02:52;4.73;;;3.30;;
10260;SDS011;5175;42.606;23.388;2023-04-15T08:05:21;6.67;;;3.90;;
10260;SDS011;5175;42.606;23.388;2023-04-15T08:07:48;3.53;;;3.13;;
10260;SDS011;5175;42.606;23.388;2023-04-15T08:10:14;2.87;;;2.27;;
10260;SDS011;5175;42.606;23.388;2023-04-15T08:12:41;4.10;;;2.73;;
10260;SDS011;5175;42.606;23.388;2023-04-15T08:15:08;5.07;;;3.10;;
10260;SDS011;5175;42.606;23.388;2023-04-15T08:17:38;5.60;;;2.87;;
10260;SDS011;5175;42.606;23.388;2023-04-15T08:20:05;3.17;;;2.43;;
10260;SDS011;5175;42.606;23.388;2023-04-15T08:22:33;4.30;;;2.80;;
10260;SDS011;5175;42.606;23.388;2023-04-15T08:25:13;6.07;;;2.50;;
10260;SDS011;5175;42.606;23.388;2023-04-15T08:27:40;3.20;;;2.47;;
10260;SDS011;5175;42.606;23.388;2023-04-15T08:30:07;3.23;;;2.70;;
10260;SDS011;5175;42.606;23.388;2023-04-15T08:32:34;4.07;;;2.67;;
10260;SDS011;5175;42.606;23.388;2023-04-15T08:35:03;5.27;;;3.13;;
10260;SDS011;5175;42.606;23.388;2023-04-15T08:37:30;4.17;;;3.10;;
10260;SDS011;5175;42.606;23.388;2023-04-15T08:39:57;2.90;;;2.60;;
10260;SDS011;5175;42.606;23.388;2023-04-15T08:42:26;3.93;;;2.67;;
10260;SDS011;5175;42.606;23.388;2023-04-15T08:44:56;4.33;;;2.87;;
10260;SDS011;5175;42.606;23.388;2023-04-15T08:47:25;2.87;;;2.10;;
10260;SDS011;5175;42.606;23.388;2023-04-15T08:49:56;3.90;;;2.63;;
10260;SDS011;5175;42.606;23.388;2023-04-15T08:52:25;2.83;;;2.20;;
10260;SDS011;5175;42.606;23.388;2023-04-15T08:54:53;4.33;;;2.50;;
10260;SDS011;5175;42.606;23.388;2023-04-15T08:57:23;4.37;;;2.40;;
10260;SDS011;5175;42.606;23.388;2023-04-15T08:59:52;4.73;;;2.47;;
10260;SDS011;5175;42.606;23.388;2023-04-15T09:02:21;2.90;;;1.80;;
10260;SDS011;5175;42.606;23.388;2023-04-15T09:04:49;2.77;;;1.87;;
10260;SDS011;5175;42.606;23.388;2023-04-15T09:07:16;4.53;;;2.00;;
10260;SDS011;5175;42.606;23.388;2023-04-15T09:09:44;3.13;;;1.70;;
10260;SDS011;5175;42.606;23.388;2023-04-15T09:12:11;4.27;;;2.30;;
10260;SDS011;5175;42.606;23.388;2023-04-15T09:14:52;4.07;;;1.93;;
10260;SDS011;5175;42.606;23.388;2023-04-15T09:17:19;2.80;;;1.97;;
10260;SDS011;5175;42.606;23.388;2023-04-15T09:19:46;3.50;;;2.17;;
10260;SDS011;5175;42.606;23.388;2023-04-15T09:22:13;2.63;;;2.00;;
10260;SDS011;5175;42.606;23.388;2023-04-15T09:24:40;3.37;;;2.10;;
10260;SDS011;5175;42.606;23.388;2023-04-15T09:27:09;2.93;;;2.00;;
10260;SDS011;5175;42.606;23.388;2023-04-15T09:29:36;3.47;;;1.70;;
10260;SDS011;5175;42.606;23.388;2023-04-15T09:32:13;3.47;;;2.20;;
10260;SDS011;5175;42.606;23.388;2023-04-15T09:34:41;2.40;;;1.83;;
10260;SDS011;5175;42.606;23.388;2023-04-15T09:37:08;3.92;;;2.10;;
10260;SDS011;5175;42.606;23.388;2023-04-15T09:39:49;3.27;;;1.80;;
10260;SDS011;5175;42.606;23.388;2023-04-15T09:42:18;3.03;;;2.00;;
10260;SDS011;5175;42.606;23.388;2023-04-15T09:44:48;3.80;;;1.95;;
10260;SDS011;5175;42.606;23.388;2023-04-15T09:47:27;2.28;;;1.90;;
10260;SDS011;5175;42.606;23.388;2023-04-15T09:49:54;3.65;;;1.90;;
10260;SDS011;5175;42.606;23.388;2023-04-15T09:52:21;4.20;;;2.15;;
10260;SDS011;5175;42.606;23.388;2023-04-15T09:54:49;2.70;;;1.73;;
10260;SDS011;5175;42.606;23.388;2023-04-15T09:57:20;2.95;;;1.80;;
10260;SDS011;5175;42.606;23.388;2023-04-15T09:59:47;4.30;;;1.75;;
10260;SDS011;5175;42.606;23.388;2023-04-15T10:02:14;4.13;;;1.90;;
10260;SDS011;5175;42.606;23.388;2023-04-15T10:04:43;2.92;;;1.70;;
10260;SDS011;5175;42.606;23.388;2023-04-15T10:07:12;4.63;;;1.73;;
10260;SDS011;5175;42.606;23.388;2023-04-15T10:09:42;3.55;;;1.70;;
10260;SDS011;5175;42.606;23.388;2023-04-15T10:12:11;3.53;;;1.60;;
10260;SDS011;5175;42.606;23.388;2023-04-15T10:14:40;2.25;;;1.58;;
10260;SDS011;5175;42.606;23.388;2023-04-15T10:17:09;3.95;;;2.80;;
10260;SDS011;5175;42.606;23.388;2023-04-15T10:19:37;5.25;;;1.80;;
10260;SDS011;5175;42.606;23.388;2023-04-15T10:22:08;2.58;;;1.70;;
10260;SDS011;5175;42.606;23.388;2023-04-15T10:24:35;5.40;;;1.90;;
10260;SDS011;5175;42.606;23.388;2023-04-15T10:27:05;2.55;;;1.70;;
10260;SDS011;5175;42.606;23.388;2023-04-15T10:29:33;2.67;;;1.90;;
10260;SDS011;5175;42.606;23.388;2023-04-15T10:32:01;3.08;;;1.85;;
10260;SDS011;5175;42.606;23.388;2023-04-15T10:34:31;3.65;;;1.80;;
10260;SDS011;5175;42.606;23.388;2023-04-15T10:37:00;3.17;;;1.80;;
10260;SDS011;5175;42.606;23.388;2023-04-15T10:39:38;4.10;;;1.77;;
10260;SDS011;5175;42.606;23.388;2023-04-15T10:42:09;2.05;;;1.58;;
10260;SDS011;5175;42.606;23.388;2023-04-15T10:44:36;2.58;;;1.55;;
10260;SDS011;5175;42.606;23.388;2023-04-15T10:47:08;3.30;;;1.52;;
10260;SDS011;5175;42.606;23.388;2023-04-15T10:49:41;3.58;;;1.58;;
10260;SDS011;5175;42.606;23.388;2023-04-15T10:52:10;3.08;;;1.45;;
10260;SDS011;5175;42.606;23.388;2023-04-15T10:54:37;4.47;;;2.35;;
10260;SDS011;5175;42.606;23.388;2023-04-15T10:57:07;4.18;;;1.73;;
10260;SDS011;5175;42.606;23.388;2023-04-15T11:02:38;2.80;;;1.55;;
10260;SDS011;5175;42.606;23.388;2023-04-15T11:05:06;4.03;;;1.67;;
10260;SDS011;5175;42.606;23.388;2023-04-15T11:07:37;2.13;;;1.60;;
10260;SDS011;5175;42.606;23.388;2023-04-15T11:13:18;2.88;;;1.58;;
10260;SDS011;5175;42.606;23.388;2023-04-15T11:15:47;1.80;;;1.30;;
10260;SDS011;5175;42.606;23.388;2023-04-15T11:18:17;3.05;;;1.38;;
10260;SDS011;5175;42.606;23.388;2023-04-15T11:20:47;1.50;;;1.40;;
10260;SDS011;5175;42.606;23.388;2023-04-15T11:23:16;3.00;;;1.50;;
10260;SDS011;5175;42.606;23.388;2023-04-15T11:25:47;2.70;;;1.42;;
10260;SDS011;5175;42.606;23.388;2023-04-15T11:28:14;2.20;;;1.50;;
10260;SDS011;5175;42.606;23.388;2023-04-15T11:30:41;1.58;;;1.48;;
10260;SDS011;5175;42.606;23.388;2023-04-15T11:33:09;1.95;;;1.38;;
10260;SDS011;5175;42.606;23.388;2023-04-15T11:35:41;2.67;;;1.52;;
10260;SDS011;5175;42.606;23.388;2023-04-15T11:38:08;2.15;;;1.30;;
10260;SDS011;5175;42.606;23.388;2023-04-15T11:40:39;1.90;;;1.23;;
10260;SDS011;5175;42.606;23.388;2023-04-15T11:43:07;2.70;;;1.30;;
10260;SDS011;5175;42.606;23.388;2023-04-15T11:45:37;2.03;;;1.40;;
10260;SDS011;5175;42.606;23.388;2023-04-15T11:48:12;2.78;;;1.30;;
10260;SDS011;5175;42.606;23.388;2023-04-15T11:50:41;2.42;;;1.10;;
10260;SDS011;5175;42.606;23.388;2023-04-15T11:53:11;2.80;;;1.52;;
10260;SDS011;5175;42.606;23.388;2023-04-15T11:55:42;3.00;;;1.80;;
10260;SDS011;5175;42.606;23.388;2023-04-15T11:58:11;2.90;;;1.20;;
10260;SDS011;5175;42.606;23.388;2023-04-15T12:00:39;3.15;;;1.10;;
10260;SDS011;5175;42.606;23.388;2023-04-15T12:03:13;1.65;;;1.10;;
10260;SDS011;5175;42.606;23.388;2023-04-15T12:11:41;2.58;;;1.08;;
10260;SDS011;5175;42.606;23.388;2023-04-15T12:14:12;1.30;;;0.85;;
10260;SDS011;5175;42.606;23.388;2023-04-15T12:16:43;2.60;;;1.08;;
10260;SDS011;5175;42.606;23.388;2023-04-15T12:19:11;1.50;;;1.20;;
10260;SDS011;5175;42.606;23.388;2023-04-15T12:21:41;2.10;;;0.80;;
10260;SDS011;5175;42.606;23.388;2023-04-15T12:24:11;1.50;;;0.80;;
10260;SDS011;5175;42.606;23.388;2023-04-15T12:26:42;2.78;;;0.98;;
10260;SDS011;5175;42.606;23.388;2023-04-15T12:29:10;6.03;;;4.68;;
10260;SDS011;5175;42.606;23.388;2023-04-15T12:31:45;8.50;;;7.05;;
10260;SDS011;5175;42.606;23.388;2023-04-15T12:34:13;2.53;;;1.05;;
10260;SDS011;5175;42.606;23.388;2023-04-15T12:36:42;1.30;;;1.20;;
10260;SDS011;5175;42.606;23.388;2023-04-15T12:39:09;2.25;;;1.00;;
10260;SDS011;5175;42.606;23.388;2023-04-15T12:41:36;1.33;;;0.95;;
10260;SDS011;5175;42.606;23.388;2023-04-15T12:44:03;1.60;;;1.00;;
10260;SDS011;5175;42.606;23.388;2023-04-15T12:46:29;2.20;;;1.27;;
10260;SDS011;5175;42.606;23.388;2023-04-15T12:48:56;2.13;;;1.00;;
10260;SDS011;5175;42.606;23.388;2023-04-15T12:51:23;4.43;;;1.83;;
10260;SDS011;5175;42.606;23.388;2023-04-15T12:53:52;2.55;;;0.90;;
10260;SDS011;5175;42.606;23.388;2023-04-15T12:56:19;1.98;;;0.95;;
10260;SDS011;5175;42.606;23.388;2023-04-15T12:58:46;1.55;;;0.90;;
10260;SDS011;5175;42.606;23.388;2023-04-15T13:01:13;1.17;;;0.73;;
10260;SDS011;5175;42.606;23.388;2023-04-15T13:03:40;2.15;;;1.00;;
10260;SDS011;5175;42.606;23.388;2023-04-15T13:06:07;1.00;;;0.90;;
10260;SDS011;5175;42.606;23.388;2023-04-15T13:08:34;2.00;;;1.13;;
10260;SDS011;5175;42.606;23.388;2023-04-15T13:11:02;2.30;;;1.27;;
10260;SDS011;5175;42.606;23.388;2023-04-15T13:13:30;2.03;;;1.20;;
10260;SDS011;5175;42.606;23.388;2023-04-15T13:15:57;4.97;;;2.80;;
10260;SDS011;5175;42.606;23.388;2023-04-15T13:18:23;1.75;;;0.80;;
10260;SDS011;5175;42.606;23.388;2023-04-15T13:20:50;1.13;;;0.90;;
10260;SDS011;5175;42.606;23.388;2023-04-15T13:23:17;1.45;;;1.00;;
10260;SDS011;5175;42.606;23.388;2023-04-15T13:25:44;1.40;;;0.88;;
10260;SDS011;5175;42.606;23.388;2023-04-15T13:28:12;1.50;;;0.90;;
10260;SDS011;5175;42.606;23.388;2023-04-15T13:30:39;1.73;;;0.90;;
10260;SDS011;5175;42.606;23.388;2023-04-15T13:33:06;2.63;;;1.10;;
10260;SDS011;5175;42.606;23.388;2023-04-15T13:35:34;1.90;;;1.30;;
10260;SDS011;5175;42.606;23.388;2023-04-15T13:38:02;2.60;;;1.98;;
10260;SDS011;5175;42.606;23.388;2023-04-15T13:40:29;1.73;;;0.93;;
10260;SDS011;5175;42.606;23.388;2023-04-15T13:42:56;1.65;;;1.00;;
10260;SDS011;5175;42.606;23.388;2023-04-15T13:45:25;1.60;;;0.98;;
10260;SDS011;5175;42.606;23.388;2023-04-15T13:47:52;1.10;;;0.80;;
10260;SDS011;5175;42.606;23.388;2023-04-15T13:50:19;2.35;;;1.10;;
10260;SDS011;5175;42.606;23.388;2023-04-15T13:52:46;3.47;;;1.05;;
10260;SDS011;5175;42.606;23.388;2023-04-15T13:55:12;1.67;;;0.90;;
10260;SDS011;5175;42.606;23.388;2023-04-15T13:57:40;1.35;;;0.90;;
10260;SDS011;5175;42.606;23.388;2023-04-15T14:00:07;1.30;;;0.80;;
10260;SDS011;5175;42.606;23.388;2023-04-15T14:02:36;1.48;;;0.98;;
10260;SDS011;5175;42.606;23.388;2023-04-15T14:05:03;2.20;;;1.00;;
10260;SDS011;5175;42.606;23.388;2023-04-15T14:07:30;1.50;;;0.93;;
10260;SDS011;5175;42.606;23.388;2023-04-15T14:09:57;1.20;;;1.00;;
10260;SDS011;5175;42.606;23.388;2023-04-15T14:12:25;2.88;;;1.60;;
10260;SDS011;5175;42.606;23.388;2023-04-15T14:14:52;4.43;;;1.10;;
10260;SDS011;5175;42.606;23.388;2023-04-15T14:17:18;1.20;;;1.00;;
10260;SDS011;5175;42.606;23.388;2023-04-15T14:19:47;1.70;;;1.00;;
10260;SDS011;5175;42.606;23.388;2023-04-15T14:22:13;4.90;;;1.17;;
10260;SDS011;5175;42.606;23.388;2023-04-15T14:24:42;1.52;;;0.88;;
10260;SDS011;5175;42.606;23.388;2023-04-15T14:27:09;1.55;;;1.00;;
10260;SDS011;5175;42.606;23.388;2023-04-15T14:29:36;3.08;;;0.90;;
10260;SDS011;5175;42.606;23.388;2023-04-15T14:32:03;2.63;;;2.22;;
10260;SDS011;5175;42.606;23.388;2023-04-15T14:34:31;2.92;;;1.38;;
10260;SDS011;5175;42.606;23.388;2023-04-15T14:36:59;3.17;;;2.15;;
10260;SDS011;5175;42.606;23.388;2023-04-15T14:39:26;3.78;;;2.53;;
10260;SDS011;5175;42.606;23.388;2023-04-15T14:41:52;1.85;;;1.63;;
10260;SDS011;5175;42.606;23.388;2023-04-15T14:44:20;3.78;;;1.63;;
10260;SDS011;5175;42.606;23.388;2023-04-15T14:46:48;2.42;;;1.55;;
10260;SDS011;5175;42.606;23.388;2023-04-15T14:49:16;1.70;;;1.20;;
10260;SDS011;5175;42.606;23.388;2023-04-15T14:51:43;3.15;;;1.13;;
10260;SDS011;5175;42.606;23.388;2023-04-15T14:54:11;2.72;;;1.33;;
10260;SDS011;5175;42.606;23.388;2023-04-15T14:56:38;1.88;;;1.30;;
10260;SDS011;5175;42.606;23.388;2023-04-15T14:59:05;2.88;;;1.27;;
10260;SDS011;5175;42.606;23.388;2023-04-15T15:01:32;1.33;;;1.08;;
10260;SDS011;5175;42.606;23.388;2023-04-15T15:03:59;3.40;;;1.20;;
10260;SDS011;5175;42.606;23.388;2023-04-15T15:06:26;2.63;;;1.33;;
10260;SDS011;5175;42.606;23.388;2023-04-15T15:08:53;2.00;;;1.17;;
10260;SDS011;5175;42.606;23.388;2023-04-15T15:11:21;5.18;;;1.38;;
10260;SDS011;5175;42.606;23.388;2023-04-15T15:13:48;1.77;;;1.20;;
10260;SDS011;5175;42.606;23.388;2023-04-15T15:16:15;2.70;;;1.20;;
10260;SDS011;5175;42.606;23.388;2023-04-15T15:18:42;1.67;;;1.17;;
10260;SDS011;5175;42.606;23.388;2023-04-15T15:21:09;2.37;;;1.20;;